sensor_id;sensor_type;location;lat;lon;timestamp;pressure;altitude;pressure_sealevel;temperature;humidity
18749;BME280;9503;53.560;10.246;2023-10-08T00:02:04;101363.03;;;17.10;80.93
18749;BME280;9503;53.560;10.246;2023-10-08T00:04:32;101368.84;;;17.03;80.79
18749;BME280;9503;53.560;10.246;2023-10-08T00:07:04;101386.91;;;17.00;81.34
18749;BME280;9503;53.560;10.246;2023-10-08T00:09:33;101390.81;;;16.89;81.46
18749;BME280;9503;53.560;10.246;2023-10-08T00:12:02;101396.88;;;17.15;80.54
18749;BME280;9503;53.560;10.246;2023-10-08T00:14:28;101396.38;;;16.99;80.88
18749;BME280;9503;53.560;10.246;2023-10-08T00:16:55;101404.66;;;16.89;80.91
18749;BME280;9503;53.560;10.246;2023-10-08T00:19:20;101401.41;;;16.95;80.95
18749;BME280;9503;53.560;10.246;2023-10-08T00:21:47;101386.41;;;16.84;81.68
18749;BME280;9503;53.560;10.246;2023-10-08T00:24:17;101386.59;;;17.18;80.52
18749;BME280;9503;53.560;10.246;2023-10-08T00:26:43;101384.69;;;16.85;80.94
18749;BME280;9503;53.560;10.246;2023-10-08T00:29:10;101396.72;;;17.10;80.36
18749;BME280;9503;53.560;10.246;2023-10-08T00:31:46;101384.94;;;16.93;80.85
18749;BME280;9503;53.560;10.246;2023-10-08T00:34:15;101393.78;;;16.74;81.92
18749;BME280;9503;53.560;10.246;2023-10-08T00:36:46;101408.66;;;16.79;81.02
18749;BME280;9503;53.560;10.246;2023-10-08T00:39:14;101422.91;;;16.92;81.50
18749;BME280;9503;53.560;10.246;2023-10-08T00:41:50;101412.72;;;16.97;81.05
18749;BME280;9503;53.560;10.246;2023-10-08T00:44:19;101424.41;;;16.85;81.23
18749;BME280;9503;53.560;10.246;2023-10-08T00:46:49;101447.81;;;17.14;80.40
18749;BME280;9503;53.560;10.246;2023-10-08T00:49:16;101451.72;;;17.01;80.89
18749;BME280;9503;53.560;10.246;2023-10-08T00:52:00;101466.16;;;16.95;80.80
18749;BME280;9503;53.560;10.246;2023-10-08T00:54:50;101468.09;;;17.00;81.02
18749;BME280;9503;53.560;10.246;2023-10-08T00:57:34;101453.81;;;16.88;81.62
18749;BME280;9503;53.560;10.246;2023-10-08T01:00:03;101456.63;;;16.94;81.35
18749;BME280;9503;53.560;10.246;2023-10-08T01:02:40;101443.88;;;17.00;80.41
18749;BME280;9503;53.560;10.246;2023-10-08T01:05:12;101448.44;;;17.07;80.28
18749;BME280;9503;53.560;10.246;2023-10-08T01:07:43;101449.72;;;16.69;80.51
18749;BME280;9503;53.560;10.246;2023-10-08T01:10:14;101462.75;;;16.70;81.43
18749;BME280;9503;53.560;10.246;2023-10-08T01:12:46;101458.75;;;16.80;81.30
18749;BME280;9503;53.560;10.246;2023-10-08T01:15:29;101459.34;;;16.97;80.48
18749;BME280;9503;53.560;10.246;2023-10-08T01:17:57;101466.16;;;16.95;80.63
18749;BME280;9503;53.560;10.246;2023-10-08T01:20:25;101467.00;;;16.94;80.44
18749;BME280;9503;53.560;10.246;2023-10-08T01:23:01;101469.66;;;16.71;80.86
18749;BME280;9503;53.560;10.246;2023-10-08T01:25:38;101472.53;;;16.55;81.26
18749;BME280;9503;53.560;10.246;2023-10-08T01:28:06;101471.78;;;16.59;82.04
18749;BME280;9503;53.560;10.246;2023-10-08T01:30:40;101474.34;;;16.81;80.81
18749;BME280;9503;53.560;10.246;2023-10-08T01:33:08;101473.94;;;16.95;80.37
18749;BME280;9503;53.560;10.246;2023-10-08T01:35:38;101468.66;;;16.92;80.01
18749;BME280;9503;53.560;10.246;2023-10-08T01:38:07;101469.94;;;16.79;80.40
18749;BME280;9503;53.560;10.246;2023-10-08T01:40:34;101477.63;;;17.01;79.99
18749;BME280;9503;53.560;10.246;2023-10-08T01:43:00;101481.63;;;16.92;79.95
18749;BME280;9503;53.560;10.246;2023-10-08T01:45:29;101484.25;;;16.93;80.05
18749;BME280;9503;53.560;10.246;2023-10-08T01:47:57;101483.72;;;17.03;79.30
18749;BME280;9503;53.560;10.246;2023-10-08T01:50:23;101489.53;;;16.96;79.64
18749;BME280;9503;53.560;10.246;2023-10-08T01:52:51;101496.19;;;17.13;78.79
18749;BME280;9503;53.560;10.246;2023-10-08T01:55:19;101494.00;;;17.00;78.82
18749;BME280;9503;53.560;10.246;2023-10-08T01:57:48;101496.41;;;16.70;79.59
18749;BME280;9503;53.560;10.246;2023-10-08T02:00:17;101479.72;;;16.64;80.71
18749;BME280;9503;53.560;10.246;2023-10-08T02:02:45;101465.19;;;16.67;80.04
18749;BME280;9503;53.560;10.246;2023-10-08T02:05:12;101449.47;;;16.87;79.48
18749;BME280;9503;53.560;10.246;2023-10-08T02:07:40;101448.50;;;16.83;79.29
18749;BME280;9503;53.560;10.246;2023-10-08T02:10:08;101443.59;;;16.91;79.29
18749;BME280;9503;53.560;10.246;2023-10-08T02:12:37;101446.81;;;16.83;79.36
18749;BME280;9503;53.560;10.246;2023-10-08T02:15:05;101437.88;;;17.01;79.00
18749;BME280;9503;53.560;10.246;2023-10-08T02:17:32;101433.81;;;16.82;78.79
18749;BME280;9503;53.560;10.246;2023-10-08T02:19:59;101446.94;;;16.88;78.85
18749;BME280;9503;53.560;10.246;2023-10-08T02:22:25;101463.31;;;16.87;78.62
18749;BME280;9503;53.560;10.246;2023-10-08T02:24:52;101470.59;;;16.97;78.44
18749;BME280;9503;53.560;10.246;2023-10-08T02:27:20;101474.41;;;16.83;78.22
18749;BME280;9503;53.560;10.246;2023-10-08T02:29:48;101480.03;;;16.71;78.73
18749;BME280;9503;53.560;10.246;2023-10-08T02:32:15;101493.84;;;16.72;79.03
18749;BME280;9503;53.560;10.246;2023-10-08T02:34:42;101492.09;;;16.71;79.08
18749;BME280;9503;53.560;10.246;2023-10-08T02:37:08;101500.03;;;16.75;78.91
18749;BME280;9503;53.560;10.246;2023-10-08T02:39:36;101509.84;;;16.84;79.08
18749;BME280;9503;53.560;10.246;2023-10-08T02:42:06;101497.66;;;16.81;78.69
18749;BME280;9503;53.560;10.246;2023-10-08T02:44:36;101517.63;;;16.84;78.60
18749;BME280;9503;53.560;10.246;2023-10-08T02:47:08;101535.63;;;16.81;78.72
18749;BME280;9503;53.560;10.246;2023-10-08T02:49:37;101525.47;;;16.63;79.17
18749;BME280;9503;53.560;10.246;2023-10-08T02:52:06;101525.81;;;16.50;79.42
18749;BME280;9503;53.560;10.246;2023-10-08T02:54:34;101535.03;;;16.66;79.20
18749;BME280;9503;53.560;10.246;2023-10-08T02:57:03;101522.16;;;16.67;78.82
18749;BME280;9503;53.560;10.246;2023-10-08T02:59:36;101547.69;;;16.80;78.27
18749;BME280;9503;53.560;10.246;2023-10-08T03:02:07;101535.81;;;16.17;80.87
18749;BME280;9503;53.560;10.246;2023-10-08T03:04:40;101535.72;;;16.60;78.95
18749;BME280;9503;53.560;10.246;2023-10-08T03:07:08;101548.72;;;16.62;78.70
18749;BME280;9503;53.560;10.246;2023-10-08T03:09:46;101548.06;;;16.67;78.26
18749;BME280;9503;53.560;10.246;2023-10-08T03:12:15;101544.69;;;16.46;78.78
18749;BME280;9503;53.560;10.246;2023-10-08T03:14:42;101565.50;;;16.49;79.25
18749;BME280;9503;53.560;10.246;2023-10-08T03:17:27;101559.25;;;16.44;79.32
18749;BME280;9503;53.560;10.246;2023-10-08T03:19:55;101552.22;;;16.40;78.68
18749;BME280;9503;53.560;10.246;2023-10-08T03:22:27;101559.63;;;16.53;78.48
18749;BME280;9503;53.560;10.246;2023-10-08T03:24:58;101558.84;;;16.55;78.24
18749;BME280;9503;53.560;10.246;2023-10-08T03:27:39;101566.41;;;16.51;78.31
18749;BME280;9503;53.560;10.246;2023-10-08T03:30:08;101555.97;;;16.48;78.15
18749;BME280;9503;53.560;10.246;2023-10-08T03:32:40;101566.91;;;16.41;78.00
18749;BME280;9503;53.560;10.246;2023-10-08T03:35:08;101578.63;;;16.31;78.02
18749;BME280;9503;53.560;10.246;2023-10-08T03:37:36;101585.28;;;16.24;77.80
18749;BME280;9503;53.560;10.246;2023-10-08T03:40:07;101576.84;;;16.30;77.80
18749;BME280;9503;53.560;10.246;2023-10-08T03:42:50;101574.09;;;16.25;78.06
18749;BME280;9503;53.560;10.246;2023-10-08T03:45:17;101587.31;;;16.33;77.55
18749;BME280;9503;53.560;10.246;2023-10-08T03:47:49;101585.56;;;16.32;77.57
18749;BME280;9503;53.560;10.246;2023-10-08T03:50:30;101590.84;;;16.35;77.19
18749;BME280;9503;53.560;10.246;2023-10-08T03:53:05;101604.78;;;16.16;77.70
18749;BME280;9503;53.560;10.246;2023-10-08T03:55:37;101618.22;;;16.08;78.35
18749;BME280;9503;53.560;10.246;2023-10-08T03:58:06;101602.78;;;16.09;77.65
18749;BME280;9503;53.560;10.246;2023-10-08T04:00:37;101582.47;;;15.97;78.02
18749;BME280;9503;53.560;10.246;2023-10-08T04:03:08;101572.66;;;15.89;78.02
18749;BME280;9503;53.560;10.246;2023-10-08T04:05:37;101600.28;;;15.90;77.77
18749;BME280;9503;53.560;10.246;2023-10-08T04:08:24;101603.28;;;16.00;77.69
18749;BME280;9503;53.560;10.246;2023-10-08T04:11:08;101598.94;;;15.99;77.13
18749;BME280;9503;53.560;10.246;2023-10-08T04:13:47;101614.13;;;15.92;77.09
18749;BME280;9503;53.560;10.246;2023-10-08T04:16:14;101612.00;;;15.82;77.40
18749;BME280;9503;53.560;10.246;2023-10-08T04:18:45;101612.13;;;15.85;77.38
18749;BME280;9503;53.560;10.246;2023-10-08T04:21:16;101612.06;;;15.83;77.70
18749;BME280;9503;53.560;10.246;2023-10-08T04:23:46;101615.72;;;15.88;77.67
18749;BME280;9503;53.560;10.246;2023-10-08T04:26:16;101606.59;;;15.75;77.40
18749;BME280;9503;53.560;10.246;2023-10-08T04:28:43;101626.59;;;15.80;77.26
18749;BME280;9503;53.560;10.246;2023-10-08T04:31:10;101614.22;;;15.72;77.98
18749;BME280;9503;53.560;10.246;2023-10-08T04:33:51;101619.25;;;15.69;77.83
18749;BME280;9503;53.560;10.246;2023-10-08T04:36:18;101632.78;;;15.64;77.71
18749;BME280;9503;53.560;10.246;2023-10-08T04:38:45;101636.88;;;15.59;77.51
18749;BME280;9503;53.560;10.246;2023-10-08T04:41:14;101642.88;;;15.58;77.92
18749;BME280;9503;53.560;10.246;2023-10-08T04:43:44;101639.19;;;15.53;77.71
18749;BME280;9503;53.560;10.246;2023-10-08T04:46:11;101648.78;;;15.55;77.92
18749;BME280;9503;53.560;10.246;2023-10-08T04:48:47;101653.22;;;15.58;77.82
18749;BME280;9503;53.560;10.246;2023-10-08T04:51:16;101653.22;;;15.58;77.74
18749;BME280;9503;53.560;10.246;2023-10-08T04:53:43;101655.13;;;15.62;78.28
18749;BME280;9503;53.560;10.246;2023-10-08T04:56:14;101658.03;;;15.69;77.98
18749;BME280;9503;53.560;10.246;2023-10-08T04:58:42;101657.75;;;15.63;78.36
18749;BME280;9503;53.560;10.246;2023-10-08T05:01:12;101650.34;;;15.71;78.41
18749;BME280;9503;53.560;10.246;2023-10-08T05:03:47;101650.22;;;15.68;78.06
18749;BME280;9503;53.560;10.246;2023-10-08T05:06:35;101670.22;;;15.72;78.00
18749;BME280;9503;53.560;10.246;2023-10-08T05:09:26;101666.06;;;15.75;78.13
18749;BME280;9503;53.560;10.246;2023-10-08T05:12:04;101666.94;;;15.76;78.13
18749;BME280;9503;53.560;10.246;2023-10-08T05:14:54;101658.28;;;15.75;77.40
18749;BME280;9503;53.560;10.246;2023-10-08T05:17:41;101673.47;;;15.68;77.63
18749;BME280;9503;53.560;10.246;2023-10-08T05:20:22;101673.53;;;15.69;77.88
18749;BME280;9503;53.560;10.246;2023-10-08T05:23:07;101700.22;;;15.68;77.86
18749;BME280;9503;53.560;10.246;2023-10-08T05:25:58;101688.88;;;15.65;77.90
18749;BME280;9503;53.560;10.246;2023-10-08T05:28:35;101680.97;;;15.62;78.29
18749;BME280;9503;53.560;10.246;2023-10-08T05:31:13;101693.91;;;15.62;78.42
18749;BME280;9503;53.560;10.246;2023-10-08T05:34:01;101692.94;;;15.60;78.11
18749;BME280;9503;53.560;10.246;2023-10-08T05:36:40;101711.28;;;15.64;78.11
18749;BME280;9503;53.560;10.246;2023-10-08T05:39:17;101693.06;;;15.63;77.66
18749;BME280;9503;53.560;10.246;2023-10-08T05:41:55;101705.03;;;15.61;77.59
18749;BME280;9503;53.560;10.246;2023-10-08T05:44:38;101710.97;;;15.58;77.99
18749;BME280;9503;53.560;10.246;2023-10-08T05:47:05;101703.81;;;15.53;77.43
18749;BME280;9503;53.560;10.246;2023-10-08T05:49:50;101717.91;;;15.59;77.12
18749;BME280;9503;53.560;10.246;2023-10-08T05:52:40;101711.56;;;15.53;77.55
18749;BME280;9503;53.560;10.246;2023-10-08T05:55:17;101705.59;;;15.54;77.51
18749;BME280;9503;53.560;10.246;2023-10-08T05:57:53;101715.09;;;15.55;77.95
18749;BME280;9503;53.560;10.246;2023-10-08T06:00:38;101714.97;;;15.52;78.34
18749;BME280;9503;53.560;10.246;2023-10-08T06:03:40;101716.84;;;15.56;77.62
18749;BME280;9503;53.560;10.246;2023-10-08T06:06:25;101718.94;;;15.43;77.37
18749;BME280;9503;53.560;10.246;2023-10-08T06:09:04;101713.59;;;15.40;77.37
18749;BME280;9503;53.560;10.246;2023-10-08T06:12:00;101733.94;;;15.33;77.44
18749;BME280;9503;53.560;10.246;2023-10-08T06:14:36;101730.28;;;15.28;77.77
18749;BME280;9503;53.560;10.246;2023-10-08T06:17:20;101742.91;;;15.41;77.39
18749;BME280;9503;53.560;10.246;2023-10-08T06:20:22;101754.91;;;15.39;77.68
18749;BME280;9503;53.560;10.246;2023-10-08T06:22:51;101759.59;;;15.47;77.88
18749;BME280;9503;53.560;10.246;2023-10-08T06:25:25;101764.38;;;15.58;78.89
18749;BME280;9503;53.560;10.246;2023-10-08T06:27:53;101764.88;;;16.50;83.89
18749;BME280;9503;53.560;10.246;2023-10-08T06:30:21;101779.09;;;17.48;83.23
18749;BME280;9503;53.560;10.246;2023-10-08T06:32:49;101780.88;;;18.48;82.42
18749;BME280;9503;53.560;10.246;2023-10-08T06:35:19;101782.28;;;19.19;79.51
18749;BME280;9503;53.560;10.246;2023-10-08T06:37:51;101781.41;;;19.79;75.00
18749;BME280;9503;53.560;10.246;2023-10-08T06:40:21;101782.09;;;20.05;73.35
18749;BME280;9503;53.560;10.246;2023-10-08T06:43:05;101794.03;;;19.97;72.00
18749;BME280;9503;53.560;10.246;2023-10-08T06:45:40;101801.03;;;19.68;70.68
18749;BME280;9503;53.560;10.246;2023-10-08T06:48:08;101797.63;;;19.69;70.79
18749;BME280;9503;53.560;10.246;2023-10-08T06:50:35;101807.50;;;18.95;68.29
18749;BME280;9503;53.560;10.246;2023-10-08T06:53:04;101820.44;;;18.41;68.83
18749;BME280;9503;53.560;10.246;2023-10-08T06:55:33;101824.28;;;18.01;69.67
18749;BME280;9503;53.560;10.246;2023-10-08T06:58:01;101830.41;;;17.57;70.99
18749;BME280;9503;53.560;10.246;2023-10-08T07:00:32;101833.00;;;17.57;71.80
18749;BME280;9503;53.560;10.246;2023-10-08T07:03:05;101837.50;;;17.62;71.58
18749;BME280;9503;53.560;10.246;2023-10-08T07:05:33;101841.16;;;17.44;72.10
18749;BME280;9503;53.560;10.246;2023-10-08T07:08:08;101843.50;;;17.37;72.77
18749;BME280;9503;53.560;10.246;2023-10-08T07:10:35;101847.69;;;17.56;72.79
18749;BME280;9503;53.560;10.246;2023-10-08T07:13:02;101851.81;;;17.51;72.08
18749;BME280;9503;53.560;10.246;2023-10-08T07:15:30;101843.19;;;17.30;73.15
18749;BME280;9503;53.560;10.246;2023-10-08T07:17:57;101836.75;;;17.65;73.71
18749;BME280;9503;53.560;10.246;2023-10-08T07:20:34;101845.66;;;17.94;73.18
18749;BME280;9503;53.560;10.246;2023-10-08T07:23:07;101850.31;;;18.28;73.53
18749;BME280;9503;53.560;10.246;2023-10-08T07:25:46;101842.06;;;18.40;70.73
18749;BME280;9503;53.560;10.246;2023-10-08T07:28:18;101842.84;;;18.37;71.11
18749;BME280;9503;53.560;10.246;2023-10-08T07:30:45;101855.91;;;18.15;71.59
18749;BME280;9503;53.560;10.246;2023-10-08T07:33:15;101855.53;;;17.80;72.68
18749;BME280;9503;53.560;10.246;2023-10-08T07:35:46;101855.25;;;17.73;72.14
18749;BME280;9503;53.560;10.246;2023-10-08T07:38:25;101852.28;;;17.86;71.26
18749;BME280;9503;53.560;10.246;2023-10-08T07:40:55;101862.44;;;17.80;72.59
18749;BME280;9503;53.560;10.246;2023-10-08T07:43:23;101863.69;;;17.91;72.32
18749;BME280;9503;53.560;10.246;2023-10-08T07:45:50;101864.91;;;18.01;72.67
18749;BME280;9503;53.560;10.246;2023-10-08T07:48:19;101863.91;;;17.97;71.92
18749;BME280;9503;53.560;10.246;2023-10-08T07:50:48;101878.72;;;18.00;72.23
18749;BME280;9503;53.560;10.246;2023-10-08T07:53:16;101873.38;;;17.95;71.69
18749;BME280;9503;53.560;10.246;2023-10-08T07:55:49;101884.34;;;18.12;70.57
18749;BME280;9503;53.560;10.246;2023-10-08T07:58:17;101879.75;;;18.05;71.11
18749;BME280;9503;53.560;10.246;2023-10-08T08:00:45;101886.63;;;18.03;68.84
18749;BME280;9503;53.560;10.246;2023-10-08T08:03:20;101893.06;;;17.90;68.34
18749;BME280;9503;53.560;10.246;2023-10-08T08:05:48;101896.56;;;17.69;68.58
18749;BME280;9503;53.560;10.246;2023-10-08T08:08:19;101896.84;;;17.76;69.50
18749;BME280;9503;53.560;10.246;2023-10-08T08:10:49;101896.31;;;17.84;68.41
18749;BME280;9503;53.560;10.246;2023-10-08T08:13:24;101893.78;;;17.86;68.35
18749;BME280;9503;53.560;10.246;2023-10-08T08:15:54;101898.28;;;17.69;69.70
18749;BME280;9503;53.560;10.246;2023-10-08T08:18:24;101906.44;;;18.01;67.57
18749;BME280;9503;53.560;10.246;2023-10-08T08:21:01;101906.81;;;18.11;66.57
18749;BME280;9503;53.560;10.246;2023-10-08T08:23:29;101914.75;;;18.14;66.52
18749;BME280;9503;53.560;10.246;2023-10-08T08:25:58;101910.94;;;18.06;66.88
18749;BME280;9503;53.560;10.246;2023-10-08T08:28:38;101909.09;;;18.02;68.15
18749;BME280;9503;53.560;10.246;2023-10-08T08:31:06;101907.44;;;18.04;68.26
18749;BME280;9503;53.560;10.246;2023-10-08T08:33:40;101920.53;;;18.07;68.76
18749;BME280;9503;53.560;10.246;2023-10-08T08:36:19;101926.38;;;18.26;67.06
18749;BME280;9503;53.560;10.246;2023-10-08T08:38:46;101934.06;;;18.46;66.56
18749;BME280;9503;53.560;10.246;2023-10-08T08:41:15;101926.91;;;18.41;65.98
18749;BME280;9503;53.560;10.246;2023-10-08T08:43:47;101927.59;;;18.35;66.28
18749;BME280;9503;53.560;10.246;2023-10-08T08:46:14;101925.38;;;18.46;66.03
18749;BME280;9503;53.560;10.246;2023-10-08T08:48:41;101928.41;;;18.58;67.06
18749;BME280;9503;53.560;10.246;2023-10-08T08:51:08;101928.84;;;18.70;66.57
18749;BME280;9503;53.560;10.246;2023-10-08T08:53:35;101933.13;;;18.68;66.79
18749;BME280;9503;53.560;10.246;2023-10-08T08:56:03;101937.44;;;18.68;67.03
18749;BME280;9503;53.560;10.246;2023-10-08T08:58:34;101942.94;;;18.77;66.84
18749;BME280;9503;53.560;10.246;2023-10-08T09:01:02;101942.16;;;18.80;66.79
18749;BME280;9503;53.560;10.246;2023-10-08T09:03:30;101940.19;;;18.98;65.42
18749;BME280;9503;53.560;10.246;2023-10-08T09:05:57;101956.38;;;19.16;65.43
18749;BME280;9503;53.560;10.246;2023-10-08T09:08:27;101960.06;;;19.23;65.84
18749;BME280;9503;53.560;10.246;2023-10-08T09:10:57;101967.38;;;18.58;67.30
18749;BME280;9503;53.560;10.246;2023-10-08T09:13:27;101965.81;;;18.39;67.54
18749;BME280;9503;53.560;10.246;2023-10-08T09:16:02;101968.97;;;18.55;66.55
18749;BME280;9503;53.560;10.246;2023-10-08T09:18:30;101971.00;;;18.87;66.49
18749;BME280;9503;53.560;10.246;2023-10-08T09:21:07;101971.13;;;18.42;66.84
18749;BME280;9503;53.560;10.246;2023-10-08T09:26:08;101970.81;;;18.81;64.87
18749;BME280;9503;53.560;10.246;2023-10-08T09:28:36;101969.63;;;19.76;64.31
18749;BME280;9503;53.560;10.246;2023-10-08T09:31:05;101970.13;;;20.53;61.97
18749;BME280;9503;53.560;10.246;2023-10-08T09:33:32;101975.41;;;19.68;63.02
18749;BME280;9503;53.560;10.246;2023-10-08T09:35:59;101971.81;;;19.64;62.38
18749;BME280;9503;53.560;10.246;2023-10-08T09:38:29;101974.47;;;20.53;61.53
18749;BME280;9503;53.560;10.246;2023-10-08T09:40:57;101978.28;;;19.50;62.64
18749;BME280;9503;53.560;10.246;2023-10-08T09:43:24;101986.41;;;19.87;62.84
18749;BME280;9503;53.560;10.246;2023-10-08T09:45:54;101975.91;;;20.75;61.80
18749;BME280;9503;53.560;10.246;2023-10-08T09:48:25;101979.34;;;21.07;59.61
18749;BME280;9503;53.560;10.246;2023-10-08T09:50:54;101984.13;;;20.57;60.20
18749;BME280;9503;53.560;10.246;2023-10-08T09:53:26;101988.78;;;21.35;59.46
18749;BME280;9503;53.560;10.246;2023-10-08T09:55:55;101997.44;;;21.34;59.19
18749;BME280;9503;53.560;10.246;2023-10-08T09:58:23;101999.28;;;20.11;60.22
18749;BME280;9503;53.560;10.246;2023-10-08T10:00:51;102002.09;;;20.48;61.30
18749;BME280;9503;53.560;10.246;2023-10-08T10:03:19;102000.47;;;21.16;59.87
18749;BME280;9503;53.560;10.246;2023-10-08T10:05:49;101993.38;;;21.83;59.88
18749;BME280;9503;53.560;10.246;2023-10-08T10:08:16;101995.13;;;21.82;58.16
18749;BME280;9503;53.560;10.246;2023-10-08T10:10:43;101999.91;;;22.03;56.58
18749;BME280;9503;53.560;10.246;2023-10-08T10:13:16;102008.66;;;22.03;57.86
18749;BME280;9503;53.560;10.246;2023-10-08T10:15:43;102013.28;;;22.15;57.29
18749;BME280;9503;53.560;10.246;2023-10-08T10:18:13;102005.84;;;21.58;56.51
18749;BME280;9503;53.560;10.246;2023-10-08T10:20:43;102001.59;;;21.27;57.82
18749;BME280;9503;53.560;10.246;2023-10-08T10:23:37;102009.63;;;22.09;56.58
18749;BME280;9503;53.560;10.246;2023-10-08T10:26:06;102014.88;;;21.35;56.61
18749;BME280;9503;53.560;10.246;2023-10-08T10:31:49;102010.31;;;22.01;55.53
18749;BME280;9503;53.560;10.246;2023-10-08T10:34:20;102015.19;;;21.47;53.49
18749;BME280;9503;53.560;10.246;2023-10-08T10:36:48;102022.66;;;21.33;53.00
18749;BME280;9503;53.560;10.246;2023-10-08T10:39:18;102021.06;;;22.12;55.64
18749;BME280;9503;53.560;10.246;2023-10-08T10:41:53;102022.41;;;21.24;54.20
18749;BME280;9503;53.560;10.246;2023-10-08T10:44:23;102004.19;;;21.25;54.24
18749;BME280;9503;53.560;10.246;2023-10-08T10:46:49;102006.16;;;21.34;54.18
18749;BME280;9503;53.560;10.246;2023-10-08T10:49:21;102009.84;;;21.80;54.38
18749;BME280;9503;53.560;10.246;2023-10-08T10:51:50;102019.22;;;22.08;52.48
18749;BME280;9503;53.560;10.246;2023-10-08T10:54:24;102015.34;;;22.31;51.67
18749;BME280;9503;53.560;10.246;2023-10-08T10:56:51;101995.09;;;23.12;51.46
18749;BME280;9503;53.560;10.246;2023-10-08T10:59:29;101989.31;;;23.30;50.53
18749;BME280;9503;53.560;10.246;2023-10-08T11:02:02;101992.88;;;21.60;50.91
18749;BME280;9503;53.560;10.246;2023-10-08T11:04:34;101980.16;;;21.75;50.97
18749;BME280;9503;53.560;10.246;2023-10-08T11:07:13;102002.41;;;20.91;53.31
18749;BME280;9503;53.560;10.246;2023-10-08T11:09:43;101986.28;;;21.06;53.54
18749;BME280;9503;53.560;10.246;2023-10-08T11:12:13;101974.53;;;20.87;53.23
18749;BME280;9503;53.560;10.246;2023-10-08T11:14:46;101972.84;;;20.91;53.10
18749;BME280;9503;53.560;10.246;2023-10-08T11:17:15;101971.56;;;20.74;53.28
18749;BME280;9503;53.560;10.246;2023-10-08T11:19:42;101968.00;;;21.05;53.89
18749;BME280;9503;53.560;10.246;2023-10-08T11:22:11;101966.81;;;21.63;54.19
18749;BME280;9503;53.560;10.246;2023-10-08T11:24:43;101967.94;;;22.12;51.59
18749;BME280;9503;53.560;10.246;2023-10-08T11:27:14;101959.81;;;22.88;52.10
18749;BME280;9503;53.560;10.246;2023-10-08T11:29:54;101953.75;;;23.44;49.78
18749;BME280;9503;53.560;10.246;2023-10-08T11:32:24;101959.75;;;23.97;48.17
18749;BME280;9503;53.560;10.246;2023-10-08T11:34:54;101953.41;;;24.50;47.50
18749;BME280;9503;53.560;10.246;2023-10-08T11:37:27;101961.50;;;24.73;45.26
18749;BME280;9503;53.560;10.246;2023-10-08T11:39:56;101965.13;;;24.84;45.97
18749;BME280;9503;53.560;10.246;2023-10-08T11:42:24;101969.56;;;24.93;46.08
18749;BME280;9503;53.560;10.246;2023-10-08T11:45:09;101973.53;;;23.83;45.45
18749;BME280;9503;53.560;10.246;2023-10-08T11:47:49;101968.09;;;23.67;46.30
18749;BME280;9503;53.560;10.246;2023-10-08T11:50:23;101966.91;;;23.50;45.27
18749;BME280;9503;53.560;10.246;2023-10-08T11:52:57;101971.31;;;24.12;43.72
18749;BME280;9503;53.560;10.246;2023-10-08T11:55:29;101982.84;;;23.61;46.67
18749;BME280;9503;53.560;10.246;2023-10-08T11:57:59;101971.59;;;23.69;47.41
18749;BME280;9503;53.560;10.246;2023-10-08T12:00:26;101974.72;;;22.93;47.26
18749;BME280;9503;53.560;10.246;2023-10-08T12:02:53;101972.88;;;22.87;46.99
18749;BME280;9503;53.560;10.246;2023-10-08T12:05:21;101967.84;;;23.52;46.25
18749;BME280;9503;53.560;10.246;2023-10-08T12:07:51;101961.19;;;23.73;47.52
18749;BME280;9503;53.560;10.246;2023-10-08T12:10:18;101959.09;;;24.14;45.38
18749;BME280;9503;53.560;10.246;2023-10-08T12:12:49;101956.84;;;23.76;44.66
18749;BME280;9503;53.560;10.246;2023-10-08T12:15:18;101958.13;;;24.07;45.03
18749;BME280;9503;53.560;10.246;2023-10-08T12:17:49;101962.59;;;24.95;43.94
18749;BME280;9503;53.560;10.246;2023-10-08T12:20:35;101964.13;;;24.71;44.41
18749;BME280;9503;53.560;10.246;2023-10-08T12:23:02;101965.50;;;24.37;47.14
18749;BME280;9503;53.560;10.246;2023-10-08T12:25:29;101971.16;;;23.42;45.88
18749;BME280;9503;53.560;10.246;2023-10-08T12:27:59;101958.59;;;23.20;47.60
18749;BME280;9503;53.560;10.246;2023-10-08T12:30:29;101950.56;;;23.07;48.32
18749;BME280;9503;53.560;10.246;2023-10-08T12:32:58;101944.91;;;22.84;47.49
18749;BME280;9503;53.560;10.246;2023-10-08T12:35:25;101937.84;;;22.80;47.61
18749;BME280;9503;53.560;10.246;2023-10-08T12:37:52;101932.38;;;23.16;46.96
18749;BME280;9503;53.560;10.246;2023-10-08T12:40:19;101933.53;;;22.84;47.11
18749;BME280;9503;53.560;10.246;2023-10-08T12:42:50;101929.84;;;22.70;46.29
18749;BME280;9503;53.560;10.246;2023-10-08T12:45:18;101933.97;;;23.64;43.96
18749;BME280;9503;53.560;10.246;2023-10-08T12:47:48;101939.59;;;23.92;44.59
18749;BME280;9503;53.560;10.246;2023-10-08T12:50:16;101948.47;;;24.80;42.85
18749;BME280;9503;53.560;10.246;2023-10-08T12:52:49;101959.75;;;25.80;42.46
18749;BME280;9503;53.560;10.246;2023-10-08T12:55:21;101963.16;;;25.65;40.46
18749;BME280;9503;53.560;10.246;2023-10-08T13:00:22;101956.03;;;24.50;42.54
18749;BME280;9503;53.560;10.246;2023-10-08T13:02:50;101959.00;;;24.85;41.59
18749;BME280;9503;53.560;10.246;2023-10-08T13:05:20;101955.16;;;24.51;41.48
18749;BME280;9503;53.560;10.246;2023-10-08T13:07:54;101957.56;;;24.31;42.68
18749;BME280;9503;53.560;10.246;2023-10-08T13:10:22;101959.16;;;24.20;43.25
18749;BME280;9503;53.560;10.246;2023-10-08T13:12:48;101966.22;;;24.24;43.50
18749;BME280;9503;53.560;10.246;2023-10-08T13:15:15;101959.47;;;24.43;42.14
18749;BME280;9503;53.560;10.246;2023-10-08T13:17:43;101963.25;;;23.95;43.02
18749;BME280;9503;53.560;10.246;2023-10-08T13:20:11;101967.81;;;24.13;42.05
18749;BME280;9503;53.560;10.246;2023-10-08T13:22:38;101975.88;;;23.64;44.84